sensor_id;sensor_type;location;lat;lon;timestamp;P1;durP1;ratioP1;P2;durP2;ratioP2
7215;SDS011;3649;48.798;9.798;2022-12-18T00:01:30;48.97;;;27.83;;
7215;SDS011;3649;48.798;9.798;2022-12-18T00:04:02;68.23;;;29.03;;
7215;SDS011;3649;48.798;9.798;2022-12-18T00:06:30;51.87;;;28.57;;
7215;SDS011;3649;48.798;9.798;2022-12-18T00:08:58;52.40;;;28.47;;
7215;SDS011;3649;48.798;9.798;2022-12-18T00:11:26;49.67;;;27.13;;
7215;SDS011;3649;48.798;9.798;2022-12-18T00:13:56;46.07;;;26.50;;
7215;SDS011;3649;48.798;9.798;2022-12-18T00:16:25;47.67;;;27.17;;
7215;SDS011;3649;48.798;9.798;2022-12-18T00:18:54;51.27;;;28.40;;
7215;SDS011;3649;48.798;9.798;2022-12-18T00:21:22;47.10;;;26.97;;
7215;SDS011;3649;48.798;9.798;2022-12-18T00:23:49;43.87;;;27.13;;
7215;SDS011;3649;48.798;9.798;2022-12-18T00:26:17;44.97;;;26.07;;
7215;SDS011;3649;48.798;9.798;2022-12-18T00:28:46;47.90;;;26.37;;
7215;SDS011;3649;48.798;9.798;2022-12-18T00:31:15;43.37;;;25.47;;
7215;SDS011;3649;48.798;9.798;2022-12-18T00:33:44;44.00;;;26.63;;
7215;SDS011;3649;48.798;9.798;2022-12-18T00:36:13;44.83;;;25.87;;
7215;SDS011;3649;48.798;9.798;2022-12-18T00:38:42;45.27;;;25.57;;
7215;SDS011;3649;48.798;9.798;2022-12-18T00:41:10;48.37;;;26.97;;
7215;SDS011;3649;48.798;9.798;2022-12-18T00:43:38;46.13;;;24.40;;
7215;SDS011;3649;48.798;9.798;2022-12-18T00:46:06;44.03;;;26.13;;
7215;SDS011;3649;48.798;9.798;2022-12-18T00:48:34;49.27;;;26.40;;
7215;SDS011;3649;48.798;9.798;2022-12-18T00:51:01;44.73;;;25.07;;
7215;SDS011;3649;48.798;9.798;2022-12-18T00:53:28;41.47;;;25.70;;
7215;SDS011;3649;48.798;9.798;2022-12-18T00:55:55;38.87;;;24.57;;
7215;SDS011;3649;48.798;9.798;2022-12-18T00:58:21;45.33;;;23.63;;
7215;SDS011;3649;48.798;9.798;2022-12-18T01:00:48;43.30;;;26.07;;
7215;SDS011;3649;48.798;9.798;2022-12-18T01:03:15;44.83;;;26.47;;
7215;SDS011;3649;48.798;9.798;2022-12-18T01:05:42;37.00;;;23.40;;
7215;SDS011;3649;48.798;9.798;2022-12-18T01:08:09;44.27;;;24.37;;
7215;SDS011;3649;48.798;9.798;2022-12-18T01:10:36;43.27;;;26.67;;
7215;SDS011;3649;48.798;9.798;2022-12-18T01:13:05;48.83;;;24.93;;
7215;SDS011;3649;48.798;9.798;2022-12-18T01:15:32;43.73;;;24.60;;
7215;SDS011;3649;48.798;9.798;2022-12-18T01:17:59;38.53;;;23.27;;
7215;SDS011;3649;48.798;9.798;2022-12-18T01:20:26;34.77;;;23.53;;
7215;SDS011;3649;48.798;9.798;2022-12-18T01:22:53;42.13;;;22.53;;
7215;SDS011;3649;48.798;9.798;2022-12-18T01:25:19;39.43;;;23.10;;
7215;SDS011;3649;48.798;9.798;2022-12-18T01:27:46;41.03;;;24.73;;
7215;SDS011;3649;48.798;9.798;2022-12-18T01:30:13;43.80;;;24.53;;
7215;SDS011;3649;48.798;9.798;2022-12-18T01:32:40;41.13;;;21.83;;
7215;SDS011;3649;48.798;9.798;2022-12-18T01:35:07;39.30;;;22.33;;
7215;SDS011;3649;48.798;9.798;2022-12-18T01:37:34;32.57;;;20.53;;
7215;SDS011;3649;48.798;9.798;2022-12-18T01:40:01;39.50;;;21.87;;
7215;SDS011;3649;48.798;9.798;2022-12-18T01:42:28;38.73;;;21.93;;
7215;SDS011;3649;48.798;9.798;2022-12-18T01:52:55;38.03;;;20.17;;
7215;SDS011;3649;48.798;9.798;2022-12-18T01:55:28;33.23;;;19.37;;
7215;SDS011;3649;48.798;9.798;2022-12-18T01:57:58;34.80;;;21.43;;
7215;SDS011;3649;48.798;9.798;2022-12-18T02:00:26;33.57;;;20.90;;
7215;SDS011;3649;48.798;9.798;2022-12-18T02:02:53;36.87;;;21.27;;
7215;SDS011;3649;48.798;9.798;2022-12-18T02:05:29;32.33;;;19.27;;
7215;SDS011;3649;48.798;9.798;2022-12-18T02:18:59;36.03;;;20.33;;
7215;SDS011;3649;48.798;9.798;2022-12-18T02:27:07;30.03;;;19.30;;
7215;SDS011;3649;48.798;9.798;2022-12-18T02:29:38;38.50;;;20.23;;
7215;SDS011;3649;48.798;9.798;2022-12-18T02:32:11;36.23;;;19.53;;
7215;SDS011;3649;48.798;9.798;2022-12-18T02:35:07;34.90;;;20.23;;
7215;SDS011;3649;48.798;9.798;2022-12-18T02:37:37;34.37;;;20.00;;
7215;SDS011;3649;48.798;9.798;2022-12-18T02:40:08;35.60;;;19.77;;
7215;SDS011;3649;48.798;9.798;2022-12-18T02:42:36;28.50;;;17.63;;
7215;SDS011;3649;48.798;9.798;2022-12-18T02:45:03;31.63;;;18.77;;
7215;SDS011;3649;48.798;9.798;2022-12-18T02:47:31;30.30;;;18.33;;
7215;SDS011;3649;48.798;9.798;2022-12-18T02:52:55;30.20;;;18.73;;
7215;SDS011;3649;48.798;9.798;2022-12-18T02:57:54;31.17;;;17.63;;
7215;SDS011;3649;48.798;9.798;2022-12-18T03:00:39;31.10;;;18.67;;
7215;SDS011;3649;48.798;9.798;2022-12-18T03:05:45;37.57;;;20.63;;
7215;SDS011;3649;48.798;9.798;2022-12-18T03:08:19;35.90;;;19.33;;
7215;SDS011;3649;48.798;9.798;2022-12-18T03:11:02;30.70;;;18.47;;
7215;SDS011;3649;48.798;9.798;2022-12-18T03:13:45;34.23;;;20.17;;
7215;SDS011;3649;48.798;9.798;2022-12-18T03:16:21;37.17;;;18.93;;
7215;SDS011;3649;48.798;9.798;2022-12-18T03:18:57;33.53;;;19.53;;
7215;SDS011;3649;48.798;9.798;2022-12-18T03:21:32;33.57;;;18.17;;
7215;SDS011;3649;48.798;9.798;2022-12-18T03:24:04;31.47;;;18.60;;
7215;SDS011;3649;48.798;9.798;2022-12-18T03:26:35;30.20;;;18.20;;
7215;SDS011;3649;48.798;9.798;2022-12-18T03:29:05;32.33;;;18.63;;
7215;SDS011;3649;48.798;9.798;2022-12-18T03:31:35;29.43;;;18.70;;
7215;SDS011;3649;48.798;9.798;2022-12-18T03:34:09;33.87;;;19.83;;
7215;SDS011;3649;48.798;9.798;2022-12-18T03:36:40;31.03;;;17.90;;
7215;SDS011;3649;48.798;9.798;2022-12-18T03:39:07;33.37;;;19.43;;
7215;SDS011;3649;48.798;9.798;2022-12-18T03:41:44;32.53;;;20.20;;
7215;SDS011;3649;48.798;9.798;2022-12-18T03:47:16;32.47;;;18.77;;
7215;SDS011;3649;48.798;9.798;2022-12-18T03:49:56;34.17;;;19.83;;
7215;SDS011;3649;48.798;9.798;2022-12-18T03:52:31;31.40;;;19.30;;
7215;SDS011;3649;48.798;9.798;2022-12-18T03:55:03;30.60;;;18.17;;
7215;SDS011;3649;48.798;9.798;2022-12-18T03:57:33;29.93;;;18.27;;
7215;SDS011;3649;48.798;9.798;2022-12-18T04:00:03;28.90;;;17.83;;
7215;SDS011;3649;48.798;9.798;2022-12-18T04:02:38;31.37;;;18.53;;
7215;SDS011;3649;48.798;9.798;2022-12-18T04:05:10;34.07;;;20.17;;
7215;SDS011;3649;48.798;9.798;2022-12-18T04:07:38;35.57;;;19.43;;
7215;SDS011;3649;48.798;9.798;2022-12-18T04:10:06;34.23;;;19.60;;
7215;SDS011;3649;48.798;9.798;2022-12-18T04:12:34;27.77;;;17.70;;
7215;SDS011;3649;48.798;9.798;2022-12-18T04:15:03;28.60;;;18.37;;
7215;SDS011;3649;48.798;9.798;2022-12-18T04:17:30;29.73;;;18.27;;
7215;SDS011;3649;48.798;9.798;2022-12-18T04:19:57;31.83;;;18.27;;
7215;SDS011;3649;48.798;9.798;2022-12-18T04:22:24;30.87;;;19.47;;
7215;SDS011;3649;48.798;9.798;2022-12-18T04:24:51;28.00;;;18.37;;
7215;SDS011;3649;48.798;9.798;2022-12-18T04:27:17;32.13;;;18.23;;
7215;SDS011;3649;48.798;9.798;2022-12-18T04:29:44;36.37;;;19.60;;
7215;SDS011;3649;48.798;9.798;2022-12-18T04:32:11;32.30;;;19.47;;
7215;SDS011;3649;48.798;9.798;2022-12-18T04:34:38;29.80;;;17.53;;
7215;SDS011;3649;48.798;9.798;2022-12-18T04:37:05;30.50;;;17.90;;
7215;SDS011;3649;48.798;9.798;2022-12-18T04:39:31;26.37;;;17.90;;
7215;SDS011;3649;48.798;9.798;2022-12-18T04:41:59;27.57;;;17.60;;
7215;SDS011;3649;48.798;9.798;2022-12-18T04:44:26;28.63;;;18.50;;
7215;SDS011;3649;48.798;9.798;2022-12-18T04:46:53;34.77;;;18.13;;
7215;SDS011;3649;48.798;9.798;2022-12-18T04:49:20;29.57;;;19.10;;
7215;SDS011;3649;48.798;9.798;2022-12-18T04:51:47;28.77;;;16.87;;
7215;SDS011;3649;48.798;9.798;2022-12-18T04:54:14;28.93;;;17.33;;
7215;SDS011;3649;48.798;9.798;2022-12-18T04:56:40;32.07;;;18.37;;
7215;SDS011;3649;48.798;9.798;2022-12-18T04:59:07;33.10;;;19.30;;
7215;SDS011;3649;48.798;9.798;2022-12-18T05:01:34;29.03;;;18.33;;
7215;SDS011;3649;48.798;9.798;2022-12-18T05:04:01;28.70;;;16.90;;
7215;SDS011;3649;48.798;9.798;2022-12-18T05:06:29;26.17;;;16.50;;
7215;SDS011;3649;48.798;9.798;2022-12-18T05:08:55;29.83;;;16.07;;
7215;SDS011;3649;48.798;9.798;2022-12-18T05:11:22;31.47;;;16.93;;
7215;SDS011;3649;48.798;9.798;2022-12-18T05:13:49;28.67;;;15.97;;
7215;SDS011;3649;48.798;9.798;2022-12-18T05:16:16;29.13;;;17.17;;
7215;SDS011;3649;48.798;9.798;2022-12-18T05:18:43;26.97;;;16.70;;
7215;SDS011;3649;48.798;9.798;2022-12-18T05:21:10;23.83;;;16.33;;
7215;SDS011;3649;48.798;9.798;2022-12-18T05:23:37;26.07;;;15.77;;
7215;SDS011;3649;48.798;9.798;2022-12-18T05:26:05;27.23;;;16.80;;
7215;SDS011;3649;48.798;9.798;2022-12-18T05:28:34;34.27;;;17.87;;
7215;SDS011;3649;48.798;9.798;2022-12-18T05:31:04;29.30;;;17.40;;
7215;SDS011;3649;48.798;9.798;2022-12-18T05:33:33;27.10;;;16.60;;
7215;SDS011;3649;48.798;9.798;2022-12-18T05:36:01;27.07;;;16.27;;
7215;SDS011;3649;48.798;9.798;2022-12-18T05:38:29;33.17;;;16.10;;
7215;SDS011;3649;48.798;9.798;2022-12-18T05:40:57;24.23;;;16.03;;
7215;SDS011;3649;48.798;9.798;2022-12-18T05:43:25;23.33;;;15.67;;
7215;SDS011;3649;48.798;9.798;2022-12-18T05:45:53;26.33;;;15.83;;
7215;SDS011;3649;48.798;9.798;2022-12-18T05:48:20;25.47;;;16.10;;
7215;SDS011;3649;48.798;9.798;2022-12-18T05:50:48;30.67;;;15.90;;
7215;SDS011;3649;48.798;9.798;2022-12-18T05:53:16;26.20;;;15.47;;
7215;SDS011;3649;48.798;9.798;2022-12-18T05:55:45;24.90;;;16.00;;
7215;SDS011;3649;48.798;9.798;2022-12-18T05:58:13;27.43;;;15.57;;
7215;SDS011;3649;48.798;9.798;2022-12-18T06:00:41;26.33;;;15.93;;
7215;SDS011;3649;48.798;9.798;2022-12-18T06:03:10;25.73;;;16.20;;
7215;SDS011;3649;48.798;9.798;2022-12-18T06:05:39;26.43;;;16.17;;
7215;SDS011;3649;48.798;9.798;2022-12-18T06:08:09;27.90;;;16.67;;
7215;SDS011;3649;48.798;9.798;2022-12-18T06:10:36;28.27;;;15.70;;
7215;SDS011;3649;48.798;9.798;2022-12-18T06:13:04;26.47;;;16.17;;
7215;SDS011;3649;48.798;9.798;2022-12-18T06:15:32;25.50;;;15.57;;
7215;SDS011;3649;48.798;9.798;2022-12-18T06:18:00;23.37;;;14.77;;
7215;SDS011;3649;48.798;9.798;2022-12-18T06:20:27;27.03;;;16.10;;
7215;SDS011;3649;48.798;9.798;2022-12-18T06:22:58;26.90;;;15.97;;
7215;SDS011;3649;48.798;9.798;2022-12-18T06:25:25;27.23;;;16.50;;
7215;SDS011;3649;48.798;9.798;2022-12-18T06:27:52;25.67;;;16.43;;
7215;SDS011;3649;48.798;9.798;2022-12-18T06:30:19;28.47;;;16.70;;
7215;SDS011;3649;48.798;9.798;2022-12-18T06:32:47;21.37;;;15.33;;
7215;SDS011;3649;48.798;9.798;2022-12-18T06:35:21;27.10;;;16.13;;
7215;SDS011;3649;48.798;9.798;2022-12-18T06:37:48;30.03;;;17.87;;
7215;SDS011;3649;48.798;9.798;2022-12-18T06:40:15;28.23;;;16.77;;
7215;SDS011;3649;48.798;9.798;2022-12-18T06:42:42;24.67;;;16.20;;
7215;SDS011;3649;48.798;9.798;2022-12-18T06:45:09;27.53;;;16.37;;
7215;SDS011;3649;48.798;9.798;2022-12-18T06:47:37;23.07;;;14.83;;
7215;SDS011;3649;48.798;9.798;2022-12-18T06:50:04;29.87;;;16.00;;
7215;SDS011;3649;48.798;9.798;2022-12-18T06:52:32;30.73;;;16.53;;
7215;SDS011;3649;48.798;9.798;2022-12-18T06:54:59;27.97;;;17.30;;
7215;SDS011;3649;48.798;9.798;2022-12-18T06:57:26;27.37;;;15.07;;
7215;SDS011;3649;48.798;9.798;2022-12-18T06:59:53;32.87;;;17.70;;
7215;SDS011;3649;48.798;9.798;2022-12-18T07:02:20;31.27;;;18.13;;
7215;SDS011;3649;48.798;9.798;2022-12-18T07:04:47;26.70;;;16.73;;
7215;SDS011;3649;48.798;9.798;2022-12-18T07:07:14;36.27;;;19.50;;
7215;SDS011;3649;48.798;9.798;2022-12-18T07:09:41;28.37;;;17.80;;
7215;SDS011;3649;48.798;9.798;2022-12-18T07:12:08;39.27;;;23.07;;
7215;SDS011;3649;48.798;9.798;2022-12-18T07:14:34;33.83;;;19.67;;
7215;SDS011;3649;48.798;9.798;2022-12-18T07:17:01;31.37;;;17.80;;
7215;SDS011;3649;48.798;9.798;2022-12-18T07:19:29;32.17;;;18.30;;
7215;SDS011;3649;48.798;9.798;2022-12-18T07:21:56;31.87;;;19.33;;
7215;SDS011;3649;48.798;9.798;2022-12-18T07:24:22;33.50;;;18.57;;
7215;SDS011;3649;48.798;9.798;2022-12-18T07:26:49;29.13;;;17.43;;
7215;SDS011;3649;48.798;9.798;2022-12-18T07:29:16;28.80;;;19.03;;
7215;SDS011;3649;48.798;9.798;2022-12-18T07:31:43;34.13;;;16.83;;
7215;SDS011;3649;48.798;9.798;2022-12-18T07:34:13;31.27;;;18.20;;
7215;SDS011;3649;48.798;9.798;2022-12-18T07:36:41;30.70;;;18.50;;
7215;SDS011;3649;48.798;9.798;2022-12-18T07:39:09;37.50;;;22.37;;
7215;SDS011;3649;48.798;9.798;2022-12-18T07:41:37;29.93;;;18.23;;
7215;SDS011;3649;48.798;9.798;2022-12-18T07:44:10;39.73;;;22.13;;
7215;SDS011;3649;48.798;9.798;2022-12-18T07:46:37;44.57;;;22.60;;
7215;SDS011;3649;48.798;9.798;2022-12-18T07:49:04;28.77;;;17.70;;
7215;SDS011;3649;48.798;9.798;2022-12-18T07:51:31;28.37;;;18.33;;
7215;SDS011;3649;48.798;9.798;2022-12-18T07:53:58;29.00;;;18.93;;
7215;SDS011;3649;48.798;9.798;2022-12-18T07:56:25;28.07;;;17.20;;
7215;SDS011;3649;48.798;9.798;2022-12-18T07:58:55;29.27;;;17.33;;
7215;SDS011;3649;48.798;9.798;2022-12-18T08:01:23;29.40;;;17.87;;
7215;SDS011;3649;48.798;9.798;2022-12-18T08:03:50;30.63;;;17.60;;
7215;SDS011;3649;48.798;9.798;2022-12-18T08:06:17;35.07;;;18.50;;
7215;SDS011;3649;48.798;9.798;2022-12-18T08:08:50;30.50;;;19.10;;
7215;SDS011;3649;48.798;9.798;2022-12-18T08:11:21;28.67;;;18.63;;
7215;SDS011;3649;48.798;9.798;2022-12-18T08:13:50;30.30;;;18.13;;
7215;SDS011;3649;48.798;9.798;2022-12-18T08:16:17;32.57;;;19.13;;
7215;SDS011;3649;48.798;9.798;2022-12-18T08:18:45;32.33;;;19.60;;
7215;SDS011;3649;48.798;9.798;2022-12-18T08:21:16;29.53;;;19.93;;
7215;SDS011;3649;48.798;9.798;2022-12-18T08:23:46;31.83;;;20.17;;
7215;SDS011;3649;48.798;9.798;2022-12-18T08:26:16;31.13;;;18.50;;
7215;SDS011;3649;48.798;9.798;2022-12-18T08:28:44;31.07;;;19.43;;
7215;SDS011;3649;48.798;9.798;2022-12-18T08:31:11;30.57;;;19.17;;
7215;SDS011;3649;48.798;9.798;2022-12-18T08:33:38;27.90;;;17.67;;
7215;SDS011;3649;48.798;9.798;2022-12-18T08:36:08;32.17;;;18.60;;
7215;SDS011;3649;48.798;9.798;2022-12-18T08:38:36;33.73;;;18.17;;
7215;SDS011;3649;48.798;9.798;2022-12-18T08:41:04;29.97;;;17.40;;
7215;SDS011;3649;48.798;9.798;2022-12-18T08:43:32;29.37;;;17.83;;
7215;SDS011;3649;48.798;9.798;2022-12-18T08:46:17;30.77;;;17.67;;
7215;SDS011;3649;48.798;9.798;2022-12-18T08:48:45;29.10;;;17.63;;
7215;SDS011;3649;48.798;9.798;2022-12-18T08:51:12;38.10;;;20.93;;
7215;SDS011;3649;48.798;9.798;2022-12-18T08:53:41;34.60;;;19.37;;
7215;SDS011;3649;48.798;9.798;2022-12-18T08:56:09;34.23;;;18.80;;
7215;SDS011;3649;48.798;9.798;2022-12-18T08:58:36;30.17;;;17.73;;
7215;SDS011;3649;48.798;9.798;2022-12-18T09:01:03;28.83;;;18.60;;
7215;SDS011;3649;48.798;9.798;2022-12-18T09:03:32;28.20;;;17.73;;
7215;SDS011;3649;48.798;9.798;2022-12-18T09:05:59;29.37;;;16.77;;
7215;SDS011;3649;48.798;9.798;2022-12-18T09:08:26;30.77;;;17.60;;
7215;SDS011;3649;48.798;9.798;2022-12-18T09:10:53;33.37;;;18.97;;
7215;SDS011;3649;48.798;9.798;2022-12-18T09:13:21;32.30;;;19.20;;
7215;SDS011;3649;48.798;9.798;2022-12-18T09:15:49;34.40;;;18.17;;
7215;SDS011;3649;48.798;9.798;2022-12-18T09:18:20;32.80;;;18.23;;
7215;SDS011;3649;48.798;9.798;2022-12-18T09:20:48;34.23;;;20.77;;
7215;SDS011;3649;48.798;9.798;2022-12-18T09:23:17;36.17;;;19.97;;
7215;SDS011;3649;48.798;9.798;2022-12-18T09:25:44;36.30;;;21.17;;
7215;SDS011;3649;48.798;9.798;2022-12-18T09:28:12;34.17;;;18.97;;
7215;SDS011;3649;48.798;9.798;2022-12-18T09:30:41;34.80;;;21.17;;
7215;SDS011;3649;48.798;9.798;2022-12-18T09:33:10;41.33;;;20.23;;
7215;SDS011;3649;48.798;9.798;2022-12-18T09:35:37;38.00;;;20.50;;
7215;SDS011;3649;48.798;9.798;2022-12-18T09:38:05;37.13;;;19.47;;
7215;SDS011;3649;48.798;9.798;2022-12-18T09:40:34;35.47;;;19.50;;
7215;SDS011;3649;48.798;9.798;2022-12-18T09:43:12;34.63;;;20.80;;
7215;SDS011;3649;48.798;9.798;2022-12-18T09:45:44;34.30;;;19.37;;
7215;SDS011;3649;48.798;9.798;2022-12-18T09:48:19;38.33;;;20.73;;
7215;SDS011;3649;48.798;9.798;2022-12-18T09:50:50;30.43;;;18.53;;
7215;SDS011;3649;48.798;9.798;2022-12-18T09:53:22;28.80;;;17.23;;
7215;SDS011;3649;48.798;9.798;2022-12-18T09:55:53;31.43;;;17.00;;
7215;SDS011;3649;48.798;9.798;2022-12-18T10:00:57;28.33;;;17.17;;
7215;SDS011;3649;48.798;9.798;2022-12-18T10:03:24;29.23;;;17.50;;
7215;SDS011;3649;48.798;9.798;2022-12-18T10:05:57;30.30;;;18.40;;
7215;SDS011;3649;48.798;9.798;2022-12-18T10:08:42;33.77;;;17.93;;
7215;SDS011;3649;48.798;9.798;2022-12-18T10:17:13;41.90;;;21.90;;
7215;SDS011;3649;48.798;9.798;2022-12-18T10:20:05;37.80;;;18.90;;
7215;SDS011;3649;48.798;9.798;2022-12-18T10:25:24;43.17;;;19.90;;
7215;SDS011;3649;48.798;9.798;2022-12-18T10:27:56;45.83;;;21.60;;
7215;SDS011;3649;48.798;9.798;2022-12-18T10:30:26;38.67;;;18.37;;
7215;SDS011;3649;48.798;9.798;2022-12-18T10:32:53;39.97;;;19.13;;
7215;SDS011;3649;48.798;9.798;2022-12-18T10:35:23;35.07;;;17.90;;
7215;SDS011;3649;48.798;9.798;2022-12-18T10:40:52;33.13;;;18.33;;
7215;SDS011;3649;48.798;9.798;2022-12-18T10:48:27;29.00;;;18.23;;
7215;SDS011;3649;48.798;9.798;2022-12-18T10:50:56;31.33;;;17.60;;
7215;SDS011;3649;48.798;9.798;2022-12-18T10:53:39;28.50;;;17.63;;
7215;SDS011;3649;48.798;9.798;2022-12-18T10:56:07;28.23;;;16.97;;
7215;SDS011;3649;48.798;9.798;2022-12-18T10:58:36;27.10;;;15.57;;
7215;SDS011;3649;48.798;9.798;2022-12-18T11:03:33;27.27;;;16.17;;
7215;SDS011;3649;48.798;9.798;2022-12-18T11:06:07;30.70;;;17.30;;
7215;SDS011;3649;48.798;9.798;2022-12-18T11:08:38;31.20;;;17.13;;
7215;SDS011;3649;48.798;9.798;2022-12-18T11:11:14;29.47;;;16.43;;
7215;SDS011;3649;48.798;9.798;2022-12-18T11:14:02;28.53;;;15.97;;
7215;SDS011;3649;48.798;9.798;2022-12-18T11:16:36;25.23;;;15.53;;
7215;SDS011;3649;48.798;9.798;2022-12-18T11:19:31;24.27;;;14.43;;
7215;SDS011;3649;48.798;9.798;2022-12-18T11:22:01;27.60;;;15.60;;
7215;SDS011;3649;48.798;9.798;2022-12-18T11:24:49;25.43;;;16.63;;
7215;SDS011;3649;48.798;9.798;2022-12-18T11:28:03;26.63;;;15.80;;
7215;SDS011;3649;48.798;9.798;2022-12-18T11:30:33;26.13;;;15.40;;
7215;SDS011;3649;48.798;9.798;2022-12-18T11:33:11;27.53;;;15.87;;
7215;SDS011;3649;48.798;9.798;2022-12-18T11:38:29;27.97;;;16.07;;
7215;SDS011;3649;48.798;9.798;2022-12-18T11:41:03;25.60;;;16.10;;
7215;SDS011;3649;48.798;9.798;2022-12-18T11:43:40;25.90;;;14.90;;
7215;SDS011;3649;48.798;9.798;2022-12-18T11:46:15;27.60;;;16.40;;
7215;SDS011;3649;48.798;9.798;2022-12-18T11:48:58;24.93;;;15.07;;
7215;SDS011;3649;48.798;9.798;2022-12-18T11:51:35;25.33;;;15.90;;
7215;SDS011;3649;48.798;9.798;2022-12-18T11:54:14;31.33;;;17.87;;
7215;SDS011;3649;48.798;9.798;2022-12-18T11:56:46;27.53;;;16.90;;
7215;SDS011;3649;48.798;9.798;2022-12-18T12:05:05;28.43;;;15.47;;
7215;SDS011;3649;48.798;9.798;2022-12-18T12:10:43;28.80;;;15.00;;
7215;SDS011;3649;48.798;9.798;2022-12-18T12:13:29;23.07;;;14.77;;
7215;SDS011;3649;48.798;9.798;2022-12-18T12:21:17;22.90;;;14.10;;
7215;SDS011;3649;48.798;9.798;2022-12-18T12:23:51;29.07;;;16.17;;
7215;SDS011;3649;48.798;9.798;2022-12-18T12:26:59;27.70;;;15.67;;
7215;SDS011;3649;48.798;9.798;2022-12-18T12:29:51;27.63;;;15.33;;
7215;SDS011;3649;48.798;9.798;2022-12-18T12:32:52;24.97;;;14.47;;
7215;SDS011;3649;48.798;9.798;2022-12-18T12:38:34;24.30;;;14.70;;
7215;SDS011;3649;48.798;9.798;2022-12-18T12:41:11;24.57;;;15.50;;
7215;SDS011;3649;48.798;9.798;2022-12-18T12:44:00;22.83;;;13.57;;
7215;SDS011;3649;48.798;9.798;2022-12-18T12:46:34;28.47;;;15.20;;
7215;SDS011;3649;48.798;9.798;2022-12-18T12:49:24;25.90;;;16.07;;
7215;SDS011;3649;48.798;9.798;2022-12-18T12:51:57;26.57;;;16.30;;
7215;SDS011;3649;48.798;9.798;2022-12-18T12:54:31;23.53;;;14.63;;
7215;SDS011;3649;48.798;9.798;2022-12-18T12:59:47;28.07;;;16.07;;
7215;SDS011;3649;48.798;9.798;2022-12-18T13:02:42;28.70;;;18.87;;
7215;SDS011;3649;48.798;9.798;2022-12-18T13:05:31;30.40;;;18.70;;
7215;SDS011;3649;48.798;9.798;2022-12-18T13:08:08;31.37;;;18.70;;
7215;SDS011;3649;48.798;9.798;2022-12-18T13:10:40;31.67;;;17.50;;
7215;SDS011;3649;48.798;9.798;2022-12-18T13:13:12;24.27;;;14.73;;
7215;SDS011;3649;48.798;9.798;2022-12-18T13:15:50;24.63;;;14.97;;
7215;SDS011;3649;48.798;9.798;2022-12-18T13:18:33;26.30;;;16.13;;
7215;SDS011;3649;48.798;9.798;2022-12-18T13:21:02;29.90;;;16.70;;
7215;SDS011;3649;48.798;9.798;2022-12-18T13:23:41;28.20;;;16.87;;
7215;SDS011;3649;48.798;9.798;2022-12-18T13:33:42;29.07;;;15.90;;
7215;SDS011;3649;48.798;9.798;2022-12-18T13:36:31;23.50;;;15.83;;
7215;SDS011;3649;48.798;9.798;2022-12-18T13:41:49;27.93;;;15.23;;
7215;SDS011;3649;48.798;9.798;2022-12-18T13:46:53;27.13;;;16.47;;
7215;SDS011;3649;48.798;9.798;2022-12-18T13:49:37;23.77;;;14.93;;
7215;SDS011;3649;48.798;9.798;2022-12-18T13:52:19;23.20;;;14.07;;
7215;SDS011;3649;48.798;9.798;2022-12-18T13:54:52;21.23;;;13.77;;
7215;SDS011;3649;48.798;9.798;2022-12-18T13:57:31;21.10;;;13.03;;
7215;SDS011;3649;48.798;9.798;2022-12-18T14:00:46;21.13;;;13.63;;
7215;SDS011;3649;48.798;9.798;2022-12-18T14:02:58;24.73;;;15.13;;
7215;SDS011;3649;48.798;9.798;2022-12-18T14:05:35;25.67;;;14.67;;
7215;SDS011;3649;48.798;9.798;2022-12-18T14:08:06;24.67;;;14.70;;
7215;SDS011;3649;48.798;9.798;2022-12-18T14:10:44;22.57;;;15.43;;
7215;SDS011;3649;48.798;9.798;2022-12-18T14:13:17;22.77;;;14.47;;
7215;SDS011;3649;48.798;9.798;2022-12-18T14:15:57;19.33;;;14.03;;
7215;SDS011;3649;48.798;9.798;2022-12-18T14:21:01;23.67;;;14.60;;
7215;SDS011;3649;48.798;9.798;2022-12-18T14:23:34;25.53;;;14.07;;
7215;SDS011;3649;48.798;9.798;2022-12-18T14:26:27;25.17;;;14.70;;
7215;SDS011;3649;48.798;9.798;2022-12-18T14:28:57;23.97;;;16.67;;
7215;SDS011;3649;48.798;9.798;2022-12-18T14:31:28;29.80;;;17.10;;
7215;SDS011;3649;48.798;9.798;2022-12-18T14:33:56;27.83;;;15.83;;
7215;SDS011;3649;48.798;9.798;2022-12-18T14:36:24;32.03;;;17.27;;
7215;SDS011;3649;48.798;9.798;2022-12-18T14:38:53;28.57;;;15.60;;
7215;SDS011;3649;48.798;9.798;2022-12-18T14:41:23;26.77;;;15.93;;
7215;SDS011;3649;48.798;9.798;2022-12-18T14:43:51;23.10;;;15.00;;
7215;SDS011;3649;48.798;9.798;2022-12-18T14:48:59;28.37;;;16.63;;
7215;SDS011;3649;48.798;9.798;2022-12-18T14:51:47;30.23;;;16.63;;
7215;SDS011;3649;48.798;9.798;2022-12-18T14:54:17;30.17;;;17.43;;
7215;SDS011;3649;48.798;9.798;2022-12-18T14:56:46;33.30;;;18.70;;
7215;SDS011;3649;48.798;9.798;2022-12-18T14:59:15;29.90;;;18.03;;
7215;SDS011;3649;48.798;9.798;2022-12-18T15:04:37;28.57;;;16.87;;
7215;SDS011;3649;48.798;9.798;2022-12-18T15:09:37;29.40;;;18.27;;
7215;SDS011;3649;48.798;9.798;2022-12-18T15:12:05;30.30;;;18.03;;
7215;SDS011;3649;48.798;9.798;2022-12-18T15:14:46;33.20;;;20.00;;
7215;SDS011;3649;48.798;9.798;2022-12-18T15:17:21;32.73;;;19.37;;
7215;SDS011;3649;48.798;9.798;2022-12-18T15:19:51;36.30;;;22.27;;
7215;SDS011;3649;48.798;9.798;2022-12-18T15:22:26;32.33;;;19.17;;
7215;SDS011;3649;48.798;9.798;2022-12-18T15:24:59;27.27;;;16.83;;
7215;SDS011;3649;48.798;9.798;2022-12-18T15:27:31;30.53;;;17.63;;
7215;SDS011;3649;48.798;9.798;2022-12-18T15:32:34;30.40;;;17.50;;
7215;SDS011;3649;48.798;9.798;2022-12-18T15:35:21;28.90;;;17.23;;
7215;SDS011;3649;48.798;9.798;2022-12-18T15:37:49;24.47;;;16.30;;
7215;SDS011;3649;48.798;9.798;2022-12-18T15:40:21;28.20;;;17.70;;
7215;SDS011;3649;48.798;9.798;2022-12-18T15:42:51;32.40;;;19.73;;
7215;SDS011;3649;48.798;9.798;2022-12-18T15:45:39;50.23;;;28.33;;
7215;SDS011;3649;48.798;9.798;2022-12-18T15:48:15;44.83;;;24.27;;
7215;SDS011;3649;48.798;9.798;2022-12-18T15:50:47;37.03;;;21.33;;
7215;SDS011;3649;48.798;9.798;2022-12-18T15:53:15;36.33;;;22.00;;
7215;SDS011;3649;48.798;9.798;2022-12-18T15:55:43;37.97;;;22.00;;
7215;SDS011;3649;48.798;9.798;2022-12-18T15:58:28;33.23;;;20.60;;
7215;SDS011;3649;48.798;9.798;2022-12-18T16:00:55;41.53;;;21.57;;
7215;SDS011;3649;48.798;9.798;2022-12-18T16:03:27;43.87;;;23.47;;
7215;SDS011;3649;48.798;9.798;2022-12-18T16:05:57;44.97;;;26.37;;
7215;SDS011;3649;48.798;9.798;2022-12-18T16:08:29;44.43;;;25.63;;
7215;SDS011;3649;48.798;9.798;2022-12-18T16:10:57;43.63;;;25.20;;
7215;SDS011;3649;48.798;9.798;2022-12-18T16:13:24;36.90;;;22.27;;
7215;SDS011;3649;48.798;9.798;2022-12-18T16:15:51;36.67;;;22.47;;
7215;SDS011;3649;48.798;9.798;2022-12-18T16:18:18;33.60;;;20.50;;
7215;SDS011;3649;48.798;9.798;2022-12-18T16:20:45;33.77;;;19.93;;
7215;SDS011;3649;48.798;9.798;2022-12-18T16:23:12;33.67;;;19.37;;
7215;SDS011;3649;48.798;9.798;2022-12-18T16:25:39;31.77;;;18.23;;
7215;SDS011;3649;48.798;9.798;2022-12-18T16:28:05;27.53;;;16.80;;
7215;SDS011;3649;48.798;9.798;2022-12-18T16:30:32;30.37;;;18.03;;
7215;SDS011;3649;48.798;9.798;2022-12-18T16:33:03;29.43;;;16.77;;
7215;SDS011;3649;48.798;9.798;2022-12-18T16:35:32;30.23;;;18.17;;
7215;SDS011;3649;48.798;9.798;2022-12-18T16:38:02;32.90;;;19.27;;
7215;SDS011;3649;48.798;9.798;2022-12-18T16:40:30;30.57;;;19.50;;
7215;SDS011;3649;48.798;9.798;2022-12-18T16:42:58;34.07;;;20.33;;
7215;SDS011;3649;48.798;9.798;2022-12-18T16:45:25;28.33;;;17.87;;
7215;SDS011;3649;48.798;9.798;2022-12-18T16:47:51;30.93;;;17.87;;
7215;SDS011;3649;48.798;9.798;2022-12-18T16:50:21;29.47;;;18.20;;
7215;SDS011;3649;48.798;9.798;2022-12-18T16:52:48;35.27;;;19.47;;
7215;SDS011;3649;48.798;9.798;2022-12-18T16:55:14;27.57;;;17.87;;
7215;SDS011;3649;48.798;9.798;2022-12-18T16:57:41;32.83;;;19.27;;